Data for 05/18/2008

Time Sea-Level Adjusted Pressure Absolute Pressure Temperature Relative Humidity Dew Point   
(mb) (inHg) (mb) (inHg) (C) (F) (%) (C) (F)
00:05 1020 30.12 849 25.07 15.6 60 33 -0.6 30.9
00:10 1020 30.12 849 25.07 15 58.9 34 -0.6 30.9
00:15 1020 30.12 849 25.07 14.9 58.7 34 -0.8 30.5
00:20 1020 30.12 849 25.07 15 59.1 33 -0.9 30.5
00:25 1020 30.12 849 25.07 14.8 58.7 34 -0.9 30.4
00:30 1020 30.12 849 25.07 14.8 58.6 35 -0.5 31.1
00:35 1020 30.12 849 25.07 15.1 59.2 34 -0.5 31.1
00:40 1020 30.12 849 25.07 15 58.9 33 -1.2 29.8
00:45 1020 30.12 849 25.07 15.1 59.1 36 0.4 32.7
00:50 1020 30.12 849 25.07 15 58.9 35 -0.4 31.3
00:55 1020 30.12 849 25.07 14.3 57.8 38 0.2 32.4
01:00 1020 30.12 849 25.07 13.8 56.8 40 0.3 32.6
01:05 1020 30.12 849 25.07 13.8 56.9 39 0.3 32.6
01:10 1020 30.12 849 25.07 13.6 56.5 43 1.4 34.5
01:15 1019 30.09 849 25.07 13.3 55.9 42 0.8 33.4
01:20 1019 30.09 849 25.07 12.9 55.2 41 0 32.1
01:25 1019 30.09 849 25.07 13.1 55.6 41 0.1 32.1
01:30 1019 30.09 849 25.07 13.5 56.2 37 -0.9 30.3
01:35 1019 30.09 849 25.07 14.3 57.7 34 -1.3 29.7
01:40 1019 30.09 849 25.07 14.5 58 35 -0.9 30.4
01:45 1019 30.09 848 25.04 14.4 57.9 34 -1.1 29.9
01:50 1019 30.09 848 25.04 14.3 57.7 37 -0.3 31.5
01:55 1019 30.09 848 25.04 13.8 56.8 39 0.2 32.3
02:00 1019 30.09 848 25.04 13.6 56.6 38 -0.4 31.3
02:05 1019 30.09 848 25.04 14.1 57.3 38 -0.1 31.8
02:10 1019 30.09 848 25.04 13.6 56.5 41 0.5 32.9
02:15 1019 30.09 848 25.04 13.2 55.7 40 -0 31.9
02:20 1019 30.09 848 25.04 13.5 56.3 39 -0.2 31.6
02:25 1019 30.09 848 25.04 13.6 56.5 39 -0.2 31.7
02:30 1019 30.09 848 25.04 13.6 56.5 37 -0.7 30.8
02:35 1019 30.09 848 25.04 13.7 56.7 38 -0.4 31.3
02:40 1019 30.09 848 25.04 13.8 56.8 37 -0.5 31
02:45 1019 30.09 848 25.04 13.9 56.9 37 -0.6 31
02:50 1019 30.09 848 25.04 13.8 56.8 39 0.1 32.2
02:55 1019 30.09 848 25.04 13.8 56.9 38 -0.3 31.5
03:00 1019 30.09 848 25.04 14 57.1 37 -0.5 31.2
03:05 1019 30.09 848 25.04 14.1 57.3 35 -1.3 29.7
03:10 1019 30.09 848 25.04 14.6 58.3 34 -0.9 30.4
03:15 1019 30.09 848 25.04 14.5 58.1 39 0.7 33.3
03:20 1019 30.09 848 25.04 13.8 56.9 35 -1.4 29.4
03:25 1019 30.09 848 25.04 14.4 57.8 35 -0.9 30.4
03:30 1019 30.09 848 25.04 14.1 57.3 38 -0.1 31.8
03:35 1019 30.09 848 25.04 13.3 55.9 43 0.9 33.7
03:40 1019 30.09 848 25.04 12.6 54.6 44 0.7 33.3
03:45 1019 30.09 848 25.04 12.4 54.3 44 0.7 33.3
03:50 1019 30.09 848 25.04 12.2 54 48 1.5 34.7
03:55 1019 30.09 848 25.04 12.2 53.9 42 -0.4 31.2
04:00 1019 30.09 848 25.04 12.9 55.2 41 0.2 32.4
04:05 1019 30.09 848 25.04 12.7 54.8 45 1.1 33.9
04:10 1019 30.09 848 25.04 12 53.6 48 1.4 34.5
04:15 1019 30.09 848 25.04 11.5 52.7 50 1.3 34.4
04:20 1019 30.09 848 25.04 11.2 52.2 50 1.2 34.2
04:25 1019 30.09 848 25.04 11.5 52.7 46 0.5 32.8
04:30 1019 30.09 848 25.04 12 53.6 46 0.9 33.6
04:35 1019 30.09 848 25.04 12.1 53.8 45 0.5 32.9
04:40 1019 30.09 848 25.04 12.2 54 46 1 33.9
04:45 1019 30.09 848 25.04 11.9 53.3 47 0.9 33.6
04:50 1019 30.09 848 25.04 11.8 53.2 46 0.6 33.2
04:55 1019 30.09 848 25.04 12.1 53.7 44 0.1 32.2
05:00 1019 30.09 848 25.04 12.6 54.7 44 0.7 33.2
05:05 1019 30.09 848 25.04 12.7 54.9 41 -0 32
05:10 1019 30.09 848 25.04 13.4 56.2 39 -0.3 31.5
05:15 1019 30.09 848 25.04 13.7 56.6 39 -0 32
05:20 1019 30.09 848 25.04 13.4 56.1 43 1.1 34
05:25 1019 30.09 848 25.04 12.6 54.8 46 1.5 34.6
05:30 1019 30.09 848 25.04 11.8 53.2 49 1.4 34.6
05:35 1019 30.09 848 25.04 11.6 52.9 47 0.7 33.2
05:40 1019 30.09 848 25.04 12.1 53.9 45 0.7 33.2
05:45 1019 30.09 848 25.04 12.5 54.5 45 0.8 33.5
05:50 1019 30.09 848 25.04 12.3 54.2 47 1.3 34.4
05:55 1019 30.09 848 25.04 11.9 53.4 46 0.7 33.2
06:00 1019 30.09 848 25.04 12.4 54.4 43 0.1 32.3
06:05 1019 30.09 848 25.04 13 55.3 43 0.7 33.2
06:10 1019 30.09 848 25.04 13 55.3 42 0.6 33
06:15 1019 30.09 848 25.04 13.1 55.5 42 0.4 32.8
06:20 1019 30.09 848 25.04 13.6 56.4 38 -0.3 31.5
06:25 1019 30.09 848 25.04 14.3 57.8 37 0 32.1
06:30 1019 30.09 848 25.04 14.4 58 37 0.1 32.2
06:35 1019 30.09 848 25.04 14.5 58 39 0.9 33.6
06:40 1019 30.09 848 25.04 13.7 56.7 41 0.8 33.5
06:45 1019 30.09 848 25.04 13.9 56.9 38 -0.1 31.8
06:50 1019 30.09 848 25.04 14.6 58.2 37 -0 31.9
06:55 1019 30.09 848 25.04 14.9 58.7 37 0.3 32.5
07:00 1019 30.09 848 25.04 14.9 58.8 37 0.4 32.7
07:05 1019 30.09 848 25.04 14.9 58.7 38 0.7 33.3
07:10 1019 30.09 848 25.04 14.6 58.3 40 1.3 34.3
07:15 1019 30.09 848 25.04 14.5 58.1 40 1.2 34.1
07:20 1019 30.09 848 25.04 14.6 58.3 41 1.4 34.6
07:25 1019 30.09 848 25.04 14.6 58.3 41 1.6 34.8
07:30 1019 30.09 848 25.04 15 58.9 38 1 33.8
07:35 1019 30.09 848 25.04 15.4 59.8 40 1.9 35.5
07:40 1019 30.09 848 25.04 15.5 59.8 39 1.7 35.1
07:45 1019 30.09 848 25.04 15.4 59.8 38 1.3 34.4
07:50 1019 30.09 848 25.04 15.3 59.6 39 1.4 34.6
07:55 1019 30.09 848 25.04 15.3 59.6 40 1.9 35.5
08:00 1019 30.09 848 25.04 15.6 60.1 41 2.4 36.4
08:05 1018 30.06 848 25.04 16.1 61 43 3.5 38.3
08:10 1018 30.06 848 25.04 16.5 61.6 44 4.2 39.6
08:15 1018 30.06 848 25.04 16.4 61.5 41 3.4 38.1
08:20 1018 30.06 848 25.04 16.9 62.3 40 3.4 38.1
08:25 1018 30.06 848 25.04 17.4 63.4 37 2.7 36.9
08:30 1018 30.06 848 25.04 18.6 65.4 35 2.8 37
08:35 1018 30.06 848 25.04 19 66.2 35 3.5 38.3
08:40 1018 30.06 848 25.04 19.2 66.6 35 3.3 38
08:45 1018 30.06 848 25.04 19.8 67.6 34 3.8 38.8
08:50 1018 30.06 847 25.01 20.2 68.4 34 4.2 39.5
08:55 1018 30.06 847 25.01 21 69.7 34 4.7 40.4
09:00 1018 30.06 847 25.01 21.7 71 33 5.1 41.1
09:05 1018 30.06 847 25.01 22 71.5 35 5.9 42.6
09:10 1018 30.06 847 25.01 21.8 71.3 34 5.3 41.6
09:15 1018 30.06 847 25.01 21.7 71 34 5.4 41.8
09:20 1018 30.06 847 25.01 21.7 71.1 33 5.1 41.2
09:25 1018 30.06 847 25.01 21.8 71.3 32 4.5 40.1
09:30 1018 30.06 847 25.01 22 71.6 32 4.9 40.8
09:35 1018 30.06 847 25.01 22.3 72.2 31 4.7 40.4
09:40 1018 30.06 847 25.01 22.2 71.9 32 4.9 40.8
09:45 1018 30.06 847 25.01 22.3 72.1 32 5 41.1
09:50 1018 30.06 847 25.01 22.1 71.8 33 5.2 41.4
09:55 1017 30.03 847 25.01 22.4 72.3 31 4.9 40.7
10:00 1017 30.03 847 25.01 22.8 73 33 5.8 42.4
10:05 1017 30.03 847 25.01 22.3 72.2 33 5.5 42
10:10 1017 30.03 846 24.98 22.3 72.1 32 5 41.1
10:15 1017 30.03 846 24.98 22.4 72.3 32 5.2 41.3
10:20 1017 30.03 846 24.98 23 73.4 30 4.8 40.6
10:25 1017 30.03 846 24.98 23.1 73.6 29 4.5 40.1
10:30 1017 30.03 846 24.98 23.3 73.9 27 3.4 38.2
10:35 1017 30.03 846 24.98 23.7 74.6 28 4.5 40
10:40 1017 30.03 846 24.98 24.1 75.4 26 3.5 38.3
10:45 1017 30.03 846 24.98 24.1 75.4 26 3.7 38.7
10:50 1017 30.03 846 24.98 24.4 75.9 25 3.3 38
10:55 1017 30.03 846 24.98 24.2 75.6 26 3.7 38.6
11:00 1017 30.03 846 24.98 24.2 75.5 25 3.2 37.8
11:05 1016 30 846 24.98 24.6 76.4 25 3.7 38.7
11:10 1016 30 846 24.98 24.9 76.8 25 4 39.2
11:15 1016 30 845 24.95 24.9 76.8 25 3.8 38.9
11:20 1016 30 845 24.95 24.7 76.4 25 3.6 38.5
11:25 1016 30 845 24.95 24.7 76.5 25 3.6 38.4
11:30 1016 30 845 24.95 25.4 77.7 25 4.2 39.5
11:35 1016 30 845 24.95 25 76.9 25 3.7 38.7
11:40 1016 30 845 24.95 25 77.1 26 4.2 39.5
11:45 1016 30 845 24.95 24.7 76.4 26 4.3 39.8
11:50 1016 30 845 24.95 24.4 76 27 4.2 39.6
11:55 1016 30 845 24.95 24.7 76.5 26 3.9 39
12:00 1016 30 845 24.95 24.8 76.7 25 3.6 38.4
12:05 1016 30 845 24.95 24.5 76.1 26 3.7 38.7
12:10 1016 30 845 24.95 24.6 76.3 27 4.6 40.3
12:15 1016 30 845 24.95 24.8 76.7 24 3.3 37.9
12:20 1016 30 845 24.95 24.6 76.2 25 3.5 38.4
12:25 1016 30 845 24.95 24.4 76 26 4.2 39.5
12:30 1016 30 845 24.95 24.3 75.7 27 4.5 40.2
12:35 1016 30 845 24.95 24.2 75.6 26 3.7 38.6
12:40 1016 30 845 24.95 24.2 75.6 27 4 39.2
12:45 1016 30 845 24.95 24.2 75.6 26 3.6 38.6
12:50 1016 30 845 24.95 24.4 76 27 4.7 40.4
12:55 1016 30 845 24.95 24.6 76.4 25 3.5 38.4
13:00 1016 30 845 24.95 24.8 76.6 25 3.7 38.6
13:05 1016 30 845 24.95 24.7 76.5 26 4.4 40
13:10 1016 30 845 24.95 24.6 76.3 28 5.2 41.4
13:15 1016 30 845 24.95 24.6 76.3 27 4.4 39.8
13:20 1016 30 845 24.95 24.5 76.2 28 5.1 41.2
13:25 1016 30 845 24.95 24.5 76.1 27 4.4 39.9
13:30 1016 30 845 24.95 24.2 75.6 27 4.5 40.2
13:35 1016 30 845 24.95 23.9 75 27 4.1 39.4
13:40 1016 30 845 24.95 23.7 74.7 29 4.9 40.9
13:45 1015 29.97 845 24.95 23.5 74.3 29 4.6 40.3
13:50 1015 29.97 845 24.95 23.4 74.2 30 4.9 40.9
13:55 1015 29.97 845 24.95 23.3 73.9 31 5.3 41.5
14:00 1015 29.97 845 24.95 23.4 74 30 5.2 41.4
14:05 1015 29.97 845 24.95 23.5 74.2 30 5.1 41.1
14:10 1015 29.97 845 24.95 23.6 74.5 29 4.9 40.9
14:15 1015 29.97 845 24.95 23.8 74.9 30 5.6 42
14:20 1015 29.97 845 24.95 24.1 75.3 30 5.9 42.6
14:25 1015 29.97 844 24.92 24.1 75.3 30 5.6 42.1
14:30 1015 29.97 844 24.92 24.1 75.4 30 5.8 42.4
14:35 1015 29.97 844 24.92 24.3 75.7 28 5 41.1
14:40 1015 29.97 844 24.92 24.7 76.4 29 5.9 42.6
14:45 1015 29.97 844 24.92 25.1 77.2 30 6.8 44.2
14:50 1015 29.97 844 24.92 25.2 77.4 30 6.7 44
14:55 1015 29.97 844 24.92 25.4 77.7 28 5.9 42.6
15:00 1015 29.97 844 24.92 25.7 78.3 26 5 41
15:05 1015 29.97 844 24.92 26.5 79.7 24 4.3 39.8
15:10 1015 29.97 844 24.92 26.7 80.1 22 3.8 38.9
15:15 1015 29.97 844 24.92 26.7 80.1 23 4 39.2
15:20 1014 29.94 844 24.92 27 80.6 23 4.2 39.5
15:25 1014 29.94 844 24.92 27.1 80.8 22 3.7 38.6
15:30 1014 29.94 843 24.89 27 80.5 21 3 37.4
15:35 1014 29.94 843 24.89 26.6 79.8 21 2.9 37.1
15:40 1014 29.94 843 24.89 26.9 80.4 20 2.3 36.1
15:45 1014 29.94 843 24.89 27 80.5 20 2.3 36.2
15:50 1014 29.94 843 24.89 26.9 80.4 19 1.7 35.1
15:55 1014 29.94 843 24.89 27 80.5 20 2.6 36.6
16:00 1014 29.94 843 24.89 27.3 81.1 20 2.7 36.9
16:05 1014 29.94 844 24.92 27.1 80.8 20 2.9 37.1
16:10 1014 29.94 844 24.92 27 80.6 20 2.5 36.5
16:15 1014 29.94 843 24.89 27 80.6 20 2.1 35.8
16:20 1014 29.94 843 24.89 27 80.5 21 3 37.4
16:25 1014 29.94 843 24.89 26.8 80.2 21 3 37.4
16:30 1014 29.94 843 24.89 26.7 80 21 2.7 36.8
16:35 1014 29.94 843 24.89 26.7 80 20 2.5 36.5
16:40 1014 29.94 843 24.89 27.1 80.7 20 2.7 36.9
16:45 1014 29.94 843 24.89 27.1 80.8 20 2.6 36.6
16:50 1014 29.94 843 24.89 27.1 80.7 20 2.6 36.6
16:55 1014 29.94 843 24.89 27.1 80.8 20 2.5 36.6
17:00 1014 29.94 843 24.89 27 80.7 19 1.6 34.8
17:05 1014 29.94 843 24.89 27.1 80.8 19 1.7 35.1
17:10 1014 29.94 843 24.89 26.9 80.5 19 1.7 35.1
17:15 1014 29.94 843 24.89 26.9 80.3 20 2.1 35.8
17:20 1014 29.94 843 24.89 27 80.6 20 2.3 36.2
17:25 1014 29.94 843 24.89 26.9 80.5 20 2.4 36.4
17:30 1014 29.94 843 24.89 26.7 80.1 19 1.6 34.9
17:35 1014 29.94 843 24.89 26.4 79.5 20 2.1 35.7
17:40 1014 29.94 843 24.89 26.1 79 20 1.6 34.9
17:45 1014 29.94 843 24.89 26 78.8 20 1.6 35
17:50 1014 29.94 843 24.89 25.9 78.6 20 1.8 35.3
17:55 1014 29.94 843 24.89 25.9 78.5 21 2.1 35.8
18:00 1014 29.94 843 24.89 25.8 78.4 20 1.3 34.4
18:05 1014 29.94 843 24.89 25.9 78.7 20 1.7 35
18:10 1014 29.94 843 24.89 26.1 78.9 21 2.3 36.2
18:15 1014 29.94 843 24.89 26.2 79.2 21 2.6 36.7
18:20 1014 29.94 843 24.89 26.1 79 21 2.1 35.8
18:25 1014 29.94 843 24.89 26.1 79 22 3.2 37.7
18:30 1014 29.94 843 24.89 26 78.8 22 2.7 36.8
18:35 1014 29.94 843 24.89 26 78.8 21 2.2 36
18:40 1014 29.94 843 24.89 26.1 78.9 21 2.6 36.6
18:45 1014 29.94 843 24.89 25.8 78.5 21 2.2 35.9
18:50 1014 29.94 843 24.89 25.3 77.5 22 2.1 35.7
18:55 1014 29.94 843 24.89 24.9 76.7 22 1.9 35.5
19:00 1014 29.94 843 24.89 24.6 76.3 22 1.6 34.9
19:05 1014 29.94 843 24.89 24.5 76 22 1.9 35.4
19:10 1014 29.94 843 24.89 24.3 75.8 23 2 35.7
19:15 1013 29.91 843 24.89 24.2 75.6 23 2 35.5
19:20 1013 29.91 843 24.89 24.2 75.5 22 1.4 34.4
19:25 1014 29.94 843 24.89 24.2 75.6 21 0.8 33.4
19:30 1014 29.94 843 24.89 24.5 76 21 1.1 33.9
19:35 1014 29.94 843 24.89 24.5 76.1 22 1.6 34.9
19:40 1014 29.94 843 24.89 24.4 75.8 22 1.7 35.1
19:45 1014 29.94 843 24.89 24 75.3 23 1.7 35
19:50 1014 29.94 843 24.89 23.6 74.5 24 1.9 35.4
19:55 1014 29.94 843 24.89 23.4 74.2 23 1.5 34.7
20:00 1014 29.94 843 24.89 23.4 74.2 22 1 33.8
20:05 1014 29.94 843 24.89 23.5 74.2 23 1.4 34.6
20:10 1014 29.94 843 24.89 23.4 74.2 22 0.8 33.4
20:15 1014 29.94 843 24.89 23.4 74.1 22 0.6 33.1
20:20 1014 29.94 843 24.89 23.2 73.8 22 0.7 33.3
20:25 1014 29.94 843 24.89 23.1 73.5 23 0.8 33.4
20:30 1014 29.94 843 24.89 22.9 73.2 23 0.9 33.6
20:35 1014 29.94 843 24.89 22.8 73 23 0.9 33.6
20:40 1014 29.94 843 24.89 22.6 72.8 23 0.7 33.3
20:45 1014 29.94 843 24.89 22.5 72.5 23 0.7 33.2
20:50 1014 29.94 844 24.92 22.4 72.3 23 0.5 32.9
20:55 1014 29.94 844 24.92 22.2 71.9 23 0.5 32.9
21:00 1014 29.94 844 24.92 22 71.6 24 0.8 33.4
21:05 1014 29.94 844 24.92 21.9 71.4 25 1.4 34.6
21:10 1014 29.94 844 24.92 21.7 71.1 24 0.5 33
21:15 1014 29.94 844 24.92 21.6 70.9 24 0.3 32.6
21:20 1014 29.94 844 24.92 21.6 70.9 23 0.1 32.1
21:25 1015 29.97 844 24.92 21.6 70.8 23 -0.1 31.7
21:30 1015 29.97 844 24.92 21.5 70.6 24 -0 31.9
21:35 1015 29.97 844 24.92 21.3 70.4 24 -0.1 31.8
21:40 1015 29.97 844 24.92 21.2 70.1 24 -0 31.9
21:45 1015 29.97 844 24.92 21 69.7 25 0.2 32.3
21:50 1015 29.97 844 24.92 20.7 69.2 26 0.5 32.9
21:55 1015 29.97 844 24.92 20.4 68.8 26 0.6 33.1
22:00 1015 29.97 844 24.92 20.3 68.5 26 0.4 32.7
22:05 1015 29.97 845 24.95 20.2 68.3 26 0.5 32.8
22:10 1015 29.97 845 24.95 20.2 68.3 26 0.2 32.4
22:15 1016 30 845 24.95 20.2 68.3 27 0.7 33.2
22:20 1016 30 845 24.95 20.1 68.1 26 0.4 32.7
22:25 1016 30 845 24.95 19.9 67.8 28 0.9 33.5
22:30 1016 30 845 24.95 19.7 67.5 28 0.8 33.5
22:35 1016 30 845 24.95 19.5 67.1 29 1 33.9
22:40 1016 30 845 24.95 19.3 66.8 29 1 33.8
22:45 1016 30 845 24.95 19.2 66.6 29 0.9 33.7
22:50 1016 30 845 24.95 19.2 66.5 29 0.8 33.5
22:55 1016 30 845 24.95 19.2 66.5 29 1.1 33.9
23:00 1016 30 845 24.95 19.3 66.7 29 1 33.8
23:05 1016 30 845 24.95 19.2 66.5 29 1 33.8
23:10 1016 30 845 24.95 19.1 66.3 30 1.1 33.9
23:15 1016 30 845 24.95 18.9 66.1 30 1.2 34.2
23:20 1016 30 845 24.95 18.7 65.7 31 1.2 34.2
23:25 1016 30 845 24.95 18.4 65.2 32 1.5 34.7
23:30 1016 30 845 24.95 18.1 64.6 32 1.3 34.4
23:35 1016 30 845 24.95 18.1 64.6 33 1.5 34.8
23:40 1016 30 845 24.95 18.4 65 32 1.4 34.5
23:45 1016 30 845 24.95 18.5 65.3 33 1.9 35.4
23:50 1016 30 846 24.98 18.4 65.2 32 1.6 34.8
23:55 1016 30 846 24.98 18.4 65.2 32 1.6 35
24:00 1016 30 846 24.98 18.4 65.2 32 1.6 34.9